• Join FlightAware (Why Join?)
  • Login
  • US Flag 
07:15AM EDT


 

Airport Tracker/Info


-or-


 

Live Flight TrackerFlight Track Log ✈ SWA2139 ✈ 31-May-2013 ✈ KAUS - KELP

Flight Track Log - Related Links

Times and Time Zones

All times are in EDT time to prevent confusion due to time zone crossing. See the SWA2139 flight status page for this flight to view local times or setup timezone preferences in your user account.

Time Position Orientation Groundspeed Altitude Reporting Facility
EDT Latitude Longitude Course Direction KTS MPH feet Rate Location/Type
08:28AM 30.1942 -97.7606 284° West 273 314 6,200  Level Houston Center
08:29AM 30.2497 -97.8275 314° West 281 323 10,500 3,900 Climbing Houston Center
08:30AM 30.2689 -97.9442 281° West 322 371 14,300 3,480 Climbing Houston Center
08:31AM 30.2894 -98.0483 283° West 331 381 17,700 3,000 Climbing Houston Center
08:32AM 30.3440 -98.3518 284° West  Level Estimated
08:32AM 30.3131 -98.1567 284° West 346 398 20,500  Level Houston Center
08:33AM 30.3689 -98.4670 284° West  Level Estimated
08:33AM 30.3353 -98.2631 284° West 364 419 23,000  Level Houston Center
08:34AM 30.3594 -98.3831 283° West 375 432 25,400 2,280 Climbing Houston Center
08:35AM 30.3892 -98.5269 284° West 389 448 27,800 2,100 Climbing Houston Center
08:36AM 30.4144 -98.6539 283° West 398 458 29,800 1,860 Climbing Houston Center
08:37AM 30.4414 -98.7828 284° West 407 468 31,700 1,980 Climbing Houston Center
08:38AM 30.4636 -98.9094 282° West 398 458 34,000 2,040 Climbing Houston Center
08:39AM 30.4897 -99.0342 284° West 395 455 35,900 960 Climbing Houston Center
08:40AM 30.5128 -99.1475 283° West 391 450 36,000  Climbing Houston Center
08:41AM 30.5372 -99.2694 283° West 389 448 36,000  Level Houston Center
08:42AM 30.5669 -99.4147 283° West 388 447 36,000  Level Houston Center
08:43AM 30.5911 -99.5372 283° West 391 450 36,000  Level Houston Center
08:44AM 30.6153 -99.6575 283° West 385 443 36,000  Level Houston Center
08:45AM 30.6392 -99.7797 283° West 389 448 36,000  Level Houston Center
08:46AM 30.6622 -99.9017 282° West 388 447 36,000  Level Houston Center
08:47AM 30.6872 -100.0253 283° West 395 455 36,000  Level Houston Center
08:48AM 30.7144 -100.1694 282° West 382 440 36,000  Level Houston Center
08:49AM 30.7381 -100.2928 283° West 385 443 36,000  Level Houston Center
08:50AM 30.7611 -100.4142 282° West 387 445 36,000  Level Houston Center
08:51AM 30.7856 -100.5372 283° West 391 450 36,000  Level Houston Center
08:52AM 30.8075 -100.6586 282° West 383 441 36,000  Level Houston Center
08:53AM 30.8325 -100.7781 284° West 381 438 36,000  Level Houston Center
08:54AM 30.8575 -100.9281 281° West 384 442 36,000  Level Houston Center
08:55AM 30.8803 -101.0531 282° West 386 444 36,000  Level Houston Center
08:56AM 30.9036 -101.1753 283° West 386 444 36,000  Level Houston Center
08:58AM 30.9261 -101.2967 282° West 385 443 36,000  Level Houston Center
08:59AM 30.9456 -101.4206 280° West 390 449 36,000  Level Houston Center
09:00AM 30.9667 -101.5458 281° West 391 450 36,000  Level Houston Center
09:01AM 30.9939 -101.6944 282° West 392 451 36,000  Level Houston Center
09:02AM 31.0161 -101.8178 282° West 391 450 36,000  Level Houston Center
09:03AM 31.0386 -101.9408 282° West 389 448 36,000  Level Houston Center
09:04AM 31.0597 -102.0653 281° West 389 448 36,000  Level Houston Center
09:05AM 31.0819 -102.1908 282° West 401 461 36,000  Level Houston Center
09:06AM 31.1017 -102.3161 280° West 394 453 36,000  Level Houston Center
09:07AM 31.1231 -102.4428 281° West 392 451 36,000  Level Houston Center
09:08AM 31.1450 -102.5664 282° West 386 444 36,000  Level Houston Center
09:09AM 31.1664 -102.6886 282° West 384 442 36,000  Level Houston Center
09:10AM 31.1922 -102.8367 282° West 385 443 36,000  Level Houston Center
09:11AM 31.2136 -102.9597 282° West 386 444 36,000  Level Houston Center
09:12AM 31.2344 -103.0828 281° West 386 444 36,000  Level Houston Center
09:13AM 31.2536 -103.2069 280° West 388 447 36,000  Level Houston Center
09:14AM 31.2756 -103.3303 282° West 389 448 36,000  Level Houston Center
09:15AM 31.2967 -103.4786 279° West 389 448 36,000 -480 Level Albuquerque Center
09:16AM 31.3158 -103.6011 280° West 387 445 35,000 -1,020 Descending Albuquerque Center
09:17AM 31.3358 -103.7206 281° West 379 436 34,000 -1,020 Descending Albuquerque Center
09:18AM 31.3553 -103.8308 282° West 375 432 33,000 -960 Descending Albuquerque Center
09:19AM 31.3733 -103.9500 280° West 374 430 32,100 -960 Descending Albuquerque Center
09:20AM 31.3928 -104.0703 281° West 377 434 31,100 -960 Descending Albuquerque Center
09:21AM 31.4114 -104.1914 280° West 379 436 30,200 -540 Descending Albuquerque Center
09:22AM 31.4317 -104.3158 281° West 388 447 30,000 -120 Descending Albuquerque Center
09:23AM 31.4511 -104.4417 280° West 394 453 30,000  Level Albuquerque Center
09:24AM 31.4672 -104.5917 277° West 391 450 30,000  Level Albuquerque Center
09:25AM 31.4806 -104.7161 277° West 389 448 30,000  Level Albuquerque Center
09:26AM 31.4936 -104.8422 277° West 391 450 30,000 -60 Level Albuquerque Center
09:27AM 31.5072 -104.9672 277° West 390 449 29,900 -1,200 Descending Albuquerque Center
09:28AM 31.5183 -105.0931 276° West 391 450 27,600 -2,340 Descending Albuquerque Center
09:29AM 31.5317 -105.2175 277° West 389 448 25,200 -2,580 Descending Albuquerque Center
09:30AM 31.5442 -105.3433 277° West 391 450 22,500 -2,580 Descending Albuquerque Center
09:31AM 31.5558 -105.4611 277° West 368 423 20,000 -2,760 Descending Albuquerque Center
09:32AM 31.5622 -105.5442 275° West 350 403 18,300 -2,400 Descending Albuquerque Center
09:32AM 31.5656 -105.5739 278° West 352 405 17,600 -2,340 Descending Albuquerque Center
09:33AM 31.5722 -105.6542 276° West 342 394 15,900 -2,400 Descending Albuquerque Center
09:33AM 31.5761 -105.6819 279° West 339 390 15,200 -2,400 Descending Albuquerque Center
09:34AM 31.5839 -105.7608 277° West 331 381 13,500 -2,820 Descending Albuquerque Center
09:34AM 31.5906 -105.8089 279° West 329 379 12,400 -2,280 Descending Albuquerque Center
09:35AM 31.6167 -105.8575 302° West 317 365 11,200 -1,980 Descending Albuquerque Center
09:35AM 31.6372 -105.8975 301° West 317 365 10,400 -1,140 Descending Albuquerque Center
09:36AM 31.6581 -105.9419 299° West 298 343 10,100 -900 Descending Albuquerque Center
09:36AM 31.6756 -105.9753 302° West 276 318 9,500 -1,380 Descending Albuquerque Center
09:37AM 31.6950 -106.0150 300° West 250 288 8,800 -1,260 Descending Albuquerque Center
09:37AM 31.7147 -106.0439 309° West 255 293 8,200 -1,200 Descending Albuquerque Center
09:38AM 31.7442 -106.0850 310° West 234 269 7,500 -1,140 Descending Albuquerque Center
09:38AM 31.7561 -106.1000 313° West 230 265 7,100 -600 Descending Albuquerque Center
09:39AM 31.7797 -106.1386 306° West 208 239 6,900 -300 Descending Albuquerque Center
09:39AM 31.7900 -106.1519 312° West 202 232 6,800 -120 Descending Albuquerque Center
09:40AM 31.7914 -106.1906 272° West 188 216 6,800 -420 Level Albuquerque Center
09:40AM 31.7931 -106.2125 275° West 186 214 6,400 -1,020 Descending Albuquerque Center
09:41AM 31.7944 -106.2547 272° West 168 193 5,600 -900 Descending Albuquerque Center
09:42AM 31.7958 -106.2681 277° West 172 198 5,500 -720 Descending Albuquerque Center
09:42AM 31.7975 -106.3064 273° West 163 188 5,000 -960 Descending Albuquerque Center
09:42AM 31.7986 -106.3208 275° West 161 185 4,600 -840 Descending Albuquerque Center
09:43AM 31.7997 -106.3533 272° West 106 122 4,100 -720 Descending Albuquerque Center
09:44AM 31.8017 -106.3644 282° West 117 135 3,900 -720 Descending Albuquerque Center
09:45AM 31.8000 -106.3667 North  Level FlightAware Approximate
09:52AM 31.8072 -106.3764 North  Level Estimated
09:53AM 31.8072 -106.3764 North  Level Estimated
09:54AM 31.8072 -106.3764 North  Level Estimated
09:55AM 31.8072 -106.3764 North  Level Estimated
09:56AM 31.8072 -106.3764 North  Level Estimated